Time;durP1;ratioP1;P1;durP2;ratioP2;P2;SDS_P1;SDS_P2;PMS_P1;PMS_P2;Temp;Humidity;BMP_temperature;BMP_pressure;BME280_temperature;BME280_humidity;BME280_pressure;Samples;Min_cycle;Max_cycle;Signal;HPM_P1;HPM_P2
2024/03/15 00:01:09;;;;;;;;;16.00;10.00;;;;;15.13;64.85;100892.47;2015444;28;3519031;-77
2024/03/15 00:02:20;;;;;;;;;9.50;9.00;;;;;15.13;65.17;100897.75;2015198;28;2746118;-77
2024/03/15 00:03:31;;;;;;;;;10.67;10.00;;;;;15.17;64.98;100901.97;2013848;28;3511661;-77
2024/03/15 00:04:42;;;;;;;;;9.00;9.00;;;;;15.17;64.56;100908.13;2017133;28;2733603;-77
2024/03/15 00:05:53;;;;;;;;;10.50;8.00;;;;;15.17;64.85;100902.81;2018183;28;2759612;-77
2024/03/15 00:07:05;;;;;;;;;3.50;2.00;;;;;15.08;64.80;100879.47;2043946;28;2739868;-77
2024/03/15 00:08:16;;;;;;;;;6.33;4.00;;;;;15.10;64.99;100895.25;2017914;28;2746257;-77
2024/03/15 00:09:27;;;;;;;;;10.50;6.50;;;;;15.12;65.22;100896.03;2018376;28;2762808;-77
2024/03/15 00:10:37;;;;;;;;;7.00;6.67;;;;;15.17;65.44;100901.97;2004627;28;2736696;-77
2024/03/15 00:11:48;;;;;;;;;9.00;7.33;;;;;15.06;65.08;100891.94;2010470;28;2743076;-77
2024/03/15 00:13:03;;;;;;;;;8.33;8.33;;;;;15.12;65.26;100898.69;2023806;28;3444038;-78
2024/03/15 00:14:13;;;;;;;;;6.67;6.00;;;;;15.07;65.32;100894.47;2024368;28;1819032;-77
2024/03/15 00:15:25;;;;;;;;;9.00;9.00;;;;;15.11;64.99;100902.28;1995366;28;2733615;-77
2024/03/15 00:16:36;;;;;;;;;8.33;7.33;;;;;15.16;65.28;100908.22;2010999;28;2734737;-77
2024/03/15 00:17:47;;;;;;;;;7.50;7.50;;;;;15.05;65.24;100892.84;2017603;28;2737773;-77
2024/03/15 00:19:00;;;;;;;;;7.00;7.00;;;;;15.11;65.75;100904.94;2029532;28;2730477;-77
2024/03/15 00:20:11;;;;;;;;;9.67;8.33;;;;;15.15;65.65;100910.00;1986130;28;3471090;-77
2024/03/15 00:21:23;;;;;;;;;8.67;7.33;;;;;15.12;65.66;100917.22;2010922;28;2752345;-77
2024/03/15 00:22:34;;;;;;;;;7.67;7.67;;;;;15.07;65.28;100910.38;2023897;28;1826288;-77
2024/03/15 00:23:45;;;;;;;;;8.67;8.67;;;;;15.10;65.32;100916.44;2007826;28;1841913;-77
2024/03/15 00:24:57;;;;;;;;;7.00;7.00;;;;;15.16;65.82;100919.63;2006380;28;2732565;-77
2024/03/15 00:26:08;;;;;;;;;7.00;7.00;;;;;15.16;65.48;100927.56;1995101;28;3459616;-77
2024/03/15 00:27:19;;;;;;;;;9.33;9.33;;;;;15.09;65.53;100907.63;2002355;28;3475340;-77
2024/03/15 00:28:31;;;;;;;;;5.75;5.00;;;;;15.15;65.61;100923.22;2034397;28;2745143;-77
2024/03/15 00:29:41;;;;;;;;;7.00;7.00;;;;;15.14;65.88;100910.03;2003915;28;2743027;-77
2024/03/15 00:30:52;;;;;;;;;6.00;6.00;;;;;15.14;65.76;100910.91;2026480;28;3451271;-77
2024/03/15 00:32:03;;;;;;;;;8.00;7.33;;;;;15.11;65.98;100911.06;2019228;28;2740279;-77
2024/03/15 00:33:14;;;;;;;;;6.00;5.00;;;;;15.08;65.84;100898.00;2017088;28;2752475;-77
2024/03/15 00:34:25;;;;;;;;;8.00;6.00;;;;;15.16;65.43;100908.22;2024317;28;2746094;-77
2024/03/15 00:35:37;;;;;;;;;5.60;5.60;;;;;15.07;65.94;100898.91;2032421;28;2735671;-77
2024/03/15 00:36:48;;;;;;;;;5.00;5.00;;;;;15.12;66.06;100906.63;1989079;28;2749577;-76
2024/03/15 00:37:59;;;;;;;;;10.67;8.67;;;;;15.12;65.88;100911.91;2023619;28;3494032;-76
2024/03/15 00:39:11;;;;;;;;;7.00;4.00;;;;;15.04;65.91;100910.50;2036842;28;2749260;-77
2024/03/15 00:40:21;;;;;;;;;5.00;5.00;;;;;15.05;66.04;100912.25;1997049;28;2754470;-77
2024/03/15 00:41:33;;;;;;;;;4.00;4.00;;;;;15.05;66.06;100906.94;2017618;28;2750326;-78
2024/03/15 00:42:43;;;;;;;;;8.00;6.00;;;;;15.06;66.61;100916.59;2000815;28;2751306;-78
2024/03/15 00:43:55;;;;;;;;;6.67;4.00;;;;;15.06;66.35;100924.53;2013724;28;2738798;-78
2024/03/15 00:45:05;;;;;;;;;5.67;5.67;;;;;15.01;66.43;100913.34;2009643;28;2751784;-78
2024/03/15 00:46:17;;;;;;;;;6.33;5.00;;;;;15.02;66.49;100911.53;2023217;28;2752333;-78
2024/03/15 00:47:28;;;;;;;;;7.33;6.00;;;;;14.98;66.41;100910.81;2012323;28;2751341;-77
2024/03/15 00:48:41;;;;;;;;;6.50;4.33;;;;;15.00;66.54;100919.53;2036004;28;2740922;-77
2024/03/15 00:49:52;;;;;;;;;6.00;3.33;;;;;15.02;66.65;100917.69;1987849;28;2746602;-78
2024/03/15 00:51:04;;;;;;;;;4.00;3.67;;;;;15.00;66.80;100910.75;2025881;28;2748223;-78
2024/03/15 00:52:14;;;;;;;;;4.67;4.00;;;;;15.03;66.76;100914.09;2011071;28;2750327;-78
2024/03/15 00:53:25;;;;;;;;;8.00;7.00;;;;;15.03;66.71;100910.59;2027596;28;2754503;-78
2024/03/15 00:54:36;;;;;;;;;7.67;6.00;;;;;15.04;66.66;100913.16;2022827;28;2744010;-77
2024/03/15 00:55:47;;;;;;;;;5.67;5.00;;;;;14.97;67.18;100903.81;2025624;28;2750374;-77
2024/03/15 00:56:58;;;;;;;;;10.33;7.00;;;;;15.00;66.67;100908.97;2018045;28;3497129;-77
2024/03/15 00:58:09;;;;;;;;;6.00;5.00;;;;;15.00;66.60;100901.00;2025192;28;2741940;-77
2024/03/15 00:59:20;;;;;;;;;6.00;5.00;;;;;15.06;66.86;100913.09;2044090;28;2744044;-77
2024/03/15 01:00:34;;;;;;;;;5.17;5.17;;;;;15.02;66.76;100907.09;2027505;28;2748221;-78
2024/03/15 01:01:44;;;;;;;;;4.00;4.00;;;;;15.00;67.00;100913.38;1986838;28;2742966;-78
2024/03/15 01:02:55;;;;;;;;;4.00;4.00;;;;;14.98;67.04;100905.53;2026929;28;2747495;-77
2024/03/15 01:04:06;;;;;;;;;6.33;3.00;;;;;15.01;67.08;100913.34;2026941;28;2744032;-78
2024/03/15 01:05:18;;;;;;;;;5.00;5.00;;;;;15.05;66.60;100912.25;1981570;28;2754513;-78
2024/03/15 01:06:29;;;;;;;;;3.00;3.00;;;;;15.06;66.88;100913.94;2001328;28;2754534;-78
2024/03/15 01:07:40;;;;;;;;;6.00;4.00;;;;;15.02;67.00;100901.78;2026657;28;2752444;-77
2024/03/15 01:08:51;;;;;;;;;4.75;4.75;;;;;15.04;66.98;100905.22;2043855;28;2739894;-77
2024/03/15 01:10:02;;;;;;;;;6.00;6.00;;;;;15.08;67.18;100911.22;2010233;28;2750337;-78
2024/03/15 01:11:15;;;;;;;;;3.67;3.33;;;;;15.10;67.22;100922.59;2005930;28;2754428;-77
2024/03/15 01:12:26;;;;;;;;;4.33;4.33;;;;;14.96;67.32;100887.06;2004441;28;2747133;-78
2024/03/15 01:13:36;;;;;;;;;5.00;4.67;;;;;15.06;67.24;100913.94;2027642;28;2752350;-77
2024/03/15 01:14:47;;;;;;;;;4.33;3.00;;;;;15.08;67.11;100908.59;2022532;28;2754829;-78
2024/03/15 01:15:58;;;;;;;;;4.33;4.33;;;;;15.06;67.26;100908.63;2032017;28;2737769;-77
2024/03/15 01:17:09;;;;;;;;;4.33;4.00;;;;;15.06;67.11;100911.28;1996109;28;2754903;-77
2024/03/15 01:18:20;;;;;;;;;5.00;3.00;;;;;15.03;66.99;100898.22;2018392;28;2754543;-78
2024/03/15 01:19:32;;;;;;;;;5.00;5.00;;;;;15.11;67.16;100910.22;2023344;28;2745214;-78
2024/03/15 01:20:46;;;;;;;;;5.50;5.50;;;;;15.10;67.38;100908.50;2045277;28;2744003;-78
2024/03/15 01:22:00;;;;;;;;;3.50;3.00;;;;;15.13;67.21;100908.34;2013177;28;2754435;-78
2024/03/15 01:23:10;;;;;;;;;6.00;4.67;;;;;15.14;67.35;100908.25;1988644;28;2746130;-78
2024/03/15 01:24:21;;;;;;;;;5.00;3.33;;;;;15.10;67.27;100898.78;2034152;28;2755076;-77
2024/03/15 01:25:35;;;;;;;;;5.33;4.00;;;;;15.09;67.37;100899.69;2030492;28;2754482;-77
2024/03/15 01:26:46;;;;;;;;;3.00;3.00;;;;;15.07;67.38;100898.91;2019494;28;2749278;-78
2024/03/15 01:27:57;;;;;;;;;7.00;6.00;;;;;15.12;67.41;100898.69;2034926;28;2749216;-77
2024/03/15 01:29:08;;;;;;;;;6.00;5.00;;;;;15.16;67.31;100906.41;2010620;28;2746104;-78
2024/03/15 01:30:19;;;;;;;;;4.67;3.33;;;;;15.16;67.45;100900.25;2026746;28;2736748;-78
2024/03/15 01:31:33;;;;;;;;;4.33;3.50;;;;;15.16;67.42;100909.03;2008327;28;2737785;-78
2024/03/15 01:32:44;;;;;;;;;2.33;2.33;;;;;15.10;67.26;100892.63;1991963;28;2749247;-78
2024/03/15 01:33:55;;;;;;;;;4.00;3.67;;;;;15.09;67.29;100885.63;2010315;28;2744097;-78
2024/03/15 01:35:06;;;;;;;;;3.33;3.33;;;;;15.12;67.42;100890.75;2002724;28;2754460;-78
2024/03/15 01:36:17;;;;;;;;;4.00;3.00;;;;;15.10;67.38;100882.03;2007198;28;2754455;-77
2024/03/15 01:37:31;;;;;;;;;4.50;3.83;;;;;15.14;67.31;100894.16;2034771;28;2738839;-77
2024/03/15 01:38:44;;;;;;;;;3.33;3.00;;;;;15.11;67.37;100878.47;2010063;28;2753431;-77
2024/03/15 01:40:00;;;;;;;;;2.33;2.33;;;;;15.18;67.57;100898.41;2004519;28;2744015;-77
2024/03/15 01:41:13;;;;;;;;;5.00;4.83;;;;;15.13;67.45;100884.53;2001741;28;2750268;-78
2024/03/15 01:42:23;;;;;;;;;5.00;3.67;;;;;15.19;67.45;100894.78;1981240;28;2745076;-78
2024/03/15 01:43:47;;;;;;;;;2.33;2.00;;;;;15.17;67.51;100886.94;2009012;28;2741264;-78
2024/03/15 01:44:58;;;;;;;;;7.33;6.00;;;;;15.16;67.70;100887.84;2004662;28;2752404;-78
2024/03/15 01:46:09;;;;;;;;;5.33;3.00;;;;;15.13;67.48;100893.34;2035620;28;2754455;-78
2024/03/15 01:47:27;;;;;;;;;3.33;3.33;;;;;15.19;68.04;100902.75;2011813;28;2754463;-77
2024/03/15 01:48:37;;;;;;;;;3.33;3.00;;;;;15.13;67.40;100876.59;1989241;28;2754793;-77
2024/03/15 01:49:48;;;;;;;;;3.00;3.00;;;;;15.12;67.69;100885.44;2043719;28;2754497;-78
2024/03/15 01:50:59;;;;;;;;;5.67;5.00;;;;;15.16;67.57;100887.03;1995786;28;2752468;-77
2024/03/15 01:52:10;;;;;;;;;3.00;3.00;;;;;15.13;67.34;100881.88;2028207;28;2746157;-78
2024/03/15 01:53:21;;;;;;;;;7.00;4.00;;;;;15.13;67.80;100889.81;1980825;28;2746141;-78
2024/03/15 01:54:32;;;;;;;;;3.00;2.67;;;;;15.13;67.94;100893.34;2002669;28;2746140;-77
2024/03/15 01:55:46;;;;;;;;;3.17;3.17;;;;;15.13;67.96;100892.47;2037312;28;2750249;-77
2024/03/15 01:57:00;;;;;;;;;3.33;3.33;;;;;15.17;67.85;100894.03;2016673;28;2750276;-77
2024/03/15 01:58:14;;;;;;;;;4.67;4.17;;;;;15.13;68.01;100884.53;2007593;28;2737789;-78
2024/03/15 01:59:27;;;;;;;;;7.33;3.67;;;;;15.13;67.61;100889.81;2013582;28;2733625;-77
2024/03/15 02:00:41;;;;;;;;;4.33;4.33;;;;;15.17;67.87;100899.31;2005078;28;2746111;-77
2024/03/15 02:02:03;;;;;;;;;4.33;3.67;;;;;15.19;67.79;100895.66;2004202;28;2752406;-78
2024/03/15 02:03:16;;;;;;;;;4.50;4.00;;;;;15.19;67.98;100890.38;2007327;28;2752358;-78
2024/03/15 02:04:26;;;;;;;;;4.00;2.00;;;;;15.20;67.86;100896.53;1988120;28;2737792;-78
2024/03/15 02:05:37;;;;;;;;;3.00;3.00;;;;;15.17;67.87;100889.59;2042407;28;2737761;-77
2024/03/15 02:06:51;;;;;;;;;4.17;4.17;;;;;15.16;67.53;100887.84;2019531;28;2744030;-77
2024/03/15 02:08:07;;;;;;;;;3.50;3.50;;;;;15.20;67.72;100888.56;2019539;28;2737783;-77
2024/03/15 02:09:21;;;;;;;;;5.50;3.50;;;;;15.19;67.77;100886.84;2012405;28;2729432;-77
2024/03/15 02:10:31;;;;;;;;;5.00;3.67;;;;;15.16;67.98;100879.09;1980660;28;2747226;-78
2024/03/15 02:11:42;;;;;;;;;2.67;2.67;;;;;15.19;68.06;100886.84;2025495;28;2752445;-78
2024/03/15 02:12:54;;;;;;;;;4.00;4.00;;;;;15.21;68.08;100887.63;2028113;28;2744031;-78
2024/03/15 02:14:07;;;;;;;;;3.17;3.17;;;;;15.16;67.74;100879.09;2013803;28;2754420;-78
2024/03/15 02:15:18;;;;;;;;;5.00;4.00;;;;;15.26;67.85;100898.84;1986739;28;2748211;-78
2024/03/15 02:16:29;;;;;;;;;3.67;3.67;;;;;15.19;68.10;100890.38;2027533;28;2740926;-77
2024/03/15 02:17:42;;;;;;;;;6.00;4.00;;;;;15.21;68.11;100889.44;2013214;28;2744019;-77
2024/03/15 02:18:56;;;;;;;;;5.83;5.83;;;;;15.22;67.93;100892.00;2011681;28;2742969;-77
2024/03/15 02:20:06;;;;;;;;;3.00;3.00;;;;;15.23;68.00;100892.88;1972359;28;2750254;-77
2024/03/15 02:21:17;;;;;;;;;4.00;4.00;;;;;15.21;68.04;100889.44;2004632;28;2744070;-77
2024/03/15 02:22:29;;;;;;;;;5.75;4.00;;;;;15.18;67.96;100883.38;2023804;28;2754423;-78
2024/03/15 02:23:39;;;;;;;;;4.00;4.00;;;;;15.22;67.92;100894.66;1996244;28;2749242;-78
2024/03/15 02:24:52;;;;;;;;;5.60;3.80;;;;;15.20;68.14;100883.28;2036175;28;2752383;-77
2024/03/15 02:26:05;;;;;;;;;5.50;5.00;;;;;15.19;68.37;100893.00;2044425;28;2746623;-77
2024/03/15 02:27:17;;;;;;;;;2.33;2.33;;;;;15.20;68.08;100888.56;1988046;28;2754487;-78
2024/03/15 02:28:27;;;;;;;;;4.00;4.00;;;;;15.22;68.16;100893.78;2004023;28;2754555;-77
2024/03/15 02:29:40;;;;;;;;;3.67;3.33;;;;;15.17;68.27;100894.03;2035044;28;2737794;-77
2024/03/15 02:30:53;;;;;;;;;4.00;4.00;;;;;15.17;68.38;100886.94;2036418;28;2746147;-77
2024/03/15 02:32:07;;;;;;;;;3.67;3.67;;;;;15.21;68.19;100892.09;2009801;28;2741942;-78
2024/03/15 02:33:20;;;;;;;;;4.17;3.83;;;;;15.26;68.08;100903.31;2005540;28;2746104;-78
2024/03/15 02:34:36;;;;;;;;;3.17;3.17;;;;;15.26;68.21;100903.31;2005948;28;2737829;-77
2024/03/15 02:35:47;;;;;;;;;4.00;4.00;;;;;15.25;68.56;100888.34;1988663;28;2754801;-77
2024/03/15 02:36:58;;;;;;;;;5.00;4.00;;;;;15.21;68.21;100889.44;2030472;28;2737757;-76
2024/03/15 02:38:08;;;;;;;;;4.00;3.00;;;;;15.17;68.29;100884.28;1973766;28;2752393;-77
2024/03/15 02:39:19;;;;;;;;;5.00;4.33;;;;;15.24;68.06;100895.44;2035915;28;2748210;-77
2024/03/15 02:40:33;;;;;;;;;5.00;4.00;;;;;15.30;68.61;100904.84;2036392;28;2729477;-77
2024/03/15 02:41:44;;;;;;;;;4.33;4.33;;;;;15.23;68.54;100888.44;1985423;28;2741935;-78
2024/03/15 02:42:57;;;;;;;;;4.50;3.00;;;;;15.25;68.32;100896.28;2029323;28;2740892;-77
2024/03/15 02:44:10;;;;;;;;;4.67;4.33;;;;;15.26;68.10;100901.50;2004637;28;2741929;-77
2024/03/15 02:45:25;;;;;;;;;3.50;3.50;;;;;15.29;68.38;100898.69;2005232;28;2748707;-77
2024/03/15 02:46:38;;;;;;;;;3.00;3.00;;;;;15.33;68.43;100907.38;2005235;28;2748204;-78
2024/03/15 02:47:51;;;;;;;;;4.83;4.83;;;;;15.27;67.84;100895.28;2004679;28;2744030;-77
2024/03/15 02:49:04;;;;;;;;;5.00;5.00;;;;;15.27;68.34;100899.72;2013608;28;2741998;-77
2024/03/15 02:50:20;;;;;;;;;3.67;3.00;;;;;15.28;68.35;100894.31;2021030;28;2753401;-77
2024/03/15 02:51:33;;;;;;;;;4.67;3.67;;;;;15.29;68.07;100901.34;2021749;28;2746109;-77
2024/03/15 02:52:48;;;;;;;;;4.17;4.17;;;;;15.34;68.28;100903.75;2021000;28;2748192;-77
2024/03/15 02:53:58;;;;;;;;;3.00;2.67;;;;;15.33;68.06;100903.84;1986663;28;2737801;-76
2024/03/15 02:55:10;;;;;;;;;3.00;3.00;;;;;15.29;68.27;100898.69;2019289;28;2747137;-77
2024/03/15 02:56:21;;;;;;;;;4.00;3.00;;;;;15.37;68.47;100921.28;2011015;28;2754428;-76
2024/03/15 02:57:32;;;;;;;;;2.00;2.00;;;;;15.29;68.30;100905.78;2026260;28;2746123;-77
2024/03/15 02:58:46;;;;;;;;;4.00;4.00;;;;;15.31;68.70;100903.91;2034526;28;2739880;-77
2024/03/15 02:59:57;;;;;;;;;4.00;4.00;;;;;15.31;68.69;100903.91;2003623;28;2750265;-77
2024/03/15 03:01:09;;;;;;;;;3.60;3.60;;;;;15.34;69.12;100906.41;2033271;28;2737758;-77
2024/03/15 03:02:23;;;;;;;;;5.33;4.67;;;;;15.30;68.82;100902.22;2004941;28;2748186;-76
2024/03/15 03:03:33;;;;;;;;;3.00;3.00;;;;;15.34;68.45;100903.75;1988397;28;2754455;-76
2024/03/15 03:04:44;;;;;;;;;3.67;3.33;;;;;15.33;68.92;100904.72;2022659;28;2739857;-76
2024/03/15 03:05:57;;;;;;;;;5.00;3.67;;;;;15.34;68.95;100900.25;2016274;28;2739974;-77
2024/03/15 03:07:10;;;;;;;;;4.17;2.67;;;;;15.35;68.77;100894.91;2027935;28;2732059;-77
2024/03/15 03:08:24;;;;;;;;;5.00;4.00;;;;;15.37;69.04;100900.97;2013399;28;2739864;-77
2024/03/15 03:09:37;;;;;;;;;3.67;3.67;;;;;15.38;68.75;100905.31;2021056;28;2738814;-77
2024/03/15 03:10:50;;;;;;;;;4.50;3.50;;;;;15.37;69.01;100910.69;2021332;28;2731512;-77
2024/03/15 03:12:01;;;;;;;;;3.00;3.00;;;;;15.39;68.88;100899.09;1996808;28;2754452;-77
2024/03/15 03:13:12;;;;;;;;;6.00;3.33;;;;;15.34;68.86;100898.47;2027833;28;2751351;-77
2024/03/15 03:14:26;;;;;;;;;5.17;3.33;;;;;15.37;69.13;100905.41;2028697;28;2733651;-77
2024/03/15 03:15:36;;;;;;;;;3.33;3.33;;;;;15.34;69.11;100889.66;1972602;28;2749222;-77
2024/03/15 03:16:47;;;;;;;;;3.00;3.00;;;;;15.34;68.98;100901.13;2019144;28;2754438;-77
2024/03/15 03:18:00;;;;;;;;;3.00;3.00;;;;;15.35;68.76;100901.97;2027102;28;2730517;-77
2024/03/15 03:19:17;;;;;;;;;3.83;3.83;;;;;15.38;68.86;100907.13;2032008;28;2741952;-77
2024/03/15 03:20:32;;;;;;;;;3.00;3.00;;;;;15.38;68.83;100899.19;1986241;28;2754836;-77
2024/03/15 03:21:46;;;;;;;;;3.67;3.67;;;;;15.35;69.23;100901.97;2037631;28;2737801;-77
2024/03/15 03:22:56;;;;;;;;;2.67;2.67;;;;;15.34;69.22;100900.25;1995354;28;2754480;-77
2024/03/15 03:24:09;;;;;;;;;4.00;4.00;;;;;15.32;69.13;100899.47;2031133;28;2746099;-77
2024/03/15 03:25:22;;;;;;;;;3.67;3.67;;;;;15.38;68.95;100907.97;1998372;28;2739864;-77
2024/03/15 03:26:35;;;;;;;;;4.83;4.83;;;;;15.36;69.10;100909.00;2005008;28;2743029;-77
2024/03/15 03:27:49;;;;;;;;;4.00;3.00;;;;;15.37;69.10;100911.56;2005249;28;2745080;-77
2024/03/15 03:28:59;;;;;;;;;4.00;4.00;;;;;15.36;69.00;100911.66;1991483;28;2746099;-77
2024/03/15 03:30:11;;;;;;;;;3.00;3.00;;;;;15.38;69.13;100913.25;2042997;28;2754448;-77
2024/03/15 03:31:24;;;;;;;;;3.50;3.50;;;;;15.34;69.22;100908.19;2045361;28;2729489;-77
2024/03/15 03:32:39;;;;;;;;;3.83;2.50;;;;;15.32;69.08;100902.13;2012216;28;2749633;-77
2024/03/15 03:33:53;;;;;;;;;3.17;2.83;;;;;15.37;69.06;100913.34;2008989;28;2742974;-77
2024/03/15 03:35:07;;;;;;;;;4.33;4.00;;;;;15.45;68.75;100923.56;1992510;28;3465893;-77
2024/03/15 03:36:17;;;;;;;;;2.00;2.00;;;;;15.38;68.96;100915.06;2009386;28;2754439;-77
2024/03/15 03:37:28;;;;;;;;;2.67;2.67;;;;;15.42;69.01;100916.63;2026835;28;2741943;-77
2024/03/15 03:38:42;;;;;;;;;4.83;3.83;;;;;15.39;68.80;100914.13;2012780;28;2744018;-77
2024/03/15 03:39:55;;;;;;;;;4.17;4.17;;;;;15.37;68.68;100910.69;2003998;28;2746142;-77
2024/03/15 03:41:06;;;;;;;;;3.67;2.33;;;;;15.37;69.05;100914.22;1982141;28;2754423;-77
2024/03/15 03:42:19;;;;;;;;;4.00;3.33;;;;;15.36;68.95;100906.34;2012937;28;2754892;-77
2024/03/15 03:43:33;;;;;;;;;5.17;3.33;;;;;15.40;68.99;100911.41;2031166;28;2744026;-77
2024/03/15 03:44:46;;;;;;;;;3.00;3.00;;;;;15.40;68.92;100916.72;2013777;28;2749263;-77
2024/03/15 03:45:59;;;;;;;;;4.33;4.33;;;;;15.38;69.17;100907.97;2020367;28;2744027;-76
2024/03/15 03:47:12;;;;;;;;;4.83;4.33;;;;;15.37;68.88;100903.63;2007851;28;2734635;-77
2024/03/15 03:48:26;;;;;;;;;3.00;2.67;;;;;15.33;68.93;100895.91;2006541;28;2750289;-77
2024/03/15 03:49:40;;;;;;;;;3.83;3.50;;;;;15.41;69.14;100913.09;2014948;28;2741932;-77
2024/03/15 03:50:53;;;;;;;;;2.00;2.00;;;;;15.38;69.14;100909.78;2006254;28;2731509;-77
2024/03/15 03:52:03;;;;;;;;;3.33;3.33;;;;;15.37;69.50;100906.25;1987155;28;2749266;-77
2024/03/15 03:53:15;;;;;;;;;6.00;4.00;;;;;15.38;69.35;100912.41;2035595;28;2736716;-77
2024/03/15 03:54:30;;;;;;;;;3.33;3.33;;;;;15.41;69.16;100918.41;2006109;28;2750285;-77
2024/03/15 03:55:43;;;;;;;;;2.83;2.83;;;;;15.41;69.37;100923.69;2015214;28;2748185;-77
2024/03/15 03:56:54;;;;;;;;;3.00;3.00;;;;;15.39;69.13;100919.41;1995773;28;2746129;-77
2024/03/15 03:58:05;;;;;;;;;4.67;4.67;;;;;15.43;69.21;100928.06;2033812;28;2748186;-77
2024/03/15 03:59:15;;;;;;;;;3.00;2.00;;;;;15.38;69.17;100917.72;2012591;28;2748205;-77
2024/03/15 04:00:26;;;;;;;;;3.00;3.00;;;;;15.39;69.22;100920.28;2017236;28;2754989;-77
2024/03/15 04:01:37;;;;;;;;;2.00;2.00;;;;;15.45;69.07;100928.84;2024040;28;2752359;-77
2024/03/15 04:02:49;;;;;;;;;2.00;2.00;;;;;15.38;69.22;100918.56;2022310;28;2752372;-77
2024/03/15 04:04:03;;;;;;;;;2.33;2.33;;;;;15.45;69.32;100920.91;2046089;28;2744002;-77
2024/03/15 04:05:15;;;;;;;;;2.00;2.00;;;;;15.41;69.11;100920.19;1988192;28;2745087;-77
2024/03/15 04:06:26;;;;;;;;;3.00;2.00;;;;;15.42;69.15;100919.25;2007595;28;2750284;-77
2024/03/15 04:07:40;;;;;;;;;2.67;2.67;;;;;15.40;69.27;100913.19;2038902;28;2746121;-77
2024/03/15 04:08:50;;;;;;;;;2.00;2.00;;;;;15.37;69.04;100916.84;1992186;28;2750253;-77
2024/03/15 04:10:01;;;;;;;;;3.67;3.00;;;;;15.39;69.19;100924.72;2044166;28;2749228;-77
2024/03/15 04:11:15;;;;;;;;;4.00;4.00;;;;;15.35;68.98;100918.72;2035639;28;2754443;-77
2024/03/15 04:12:28;;;;;;;;;5.33;2.83;;;;;15.35;69.17;100924.03;2012565;28;2739857;-76
2024/03/15 04:13:41;;;;;;;;;3.00;3.00;;;;;15.37;69.00;100918.63;2006508;28;2744050;-77
2024/03/15 04:14:54;;;;;;;;;4.17;3.00;;;;;15.32;68.84;100923.31;2012526;28;2749256;-77
2024/03/15 04:16:06;;;;;;;;;3.33;3.00;;;;;15.31;69.23;100922.44;1986426;28;2752808;-77
2024/03/15 04:17:19;;;;;;;;;3.17;3.00;;;;;15.32;69.23;100921.53;2045250;28;2749226;-77
2024/03/15 04:18:34;;;;;;;;;1.83;1.83;;;;;15.27;69.20;100926.19;2022103;28;2746106;-77
2024/03/15 04:19:44;;;;;;;;;3.00;2.67;;;;;15.30;69.22;100926.03;1989450;28;2747156;-77
2024/03/15 04:20:55;;;;;;;;;4.33;3.00;;;;;15.24;69.10;100919.25;2032923;28;2738799;-77
2024/03/15 04:22:06;;;;;;;;;3.67;2.00;;;;;15.30;69.34;100937.50;2030674;28;2754421;-77
2024/03/15 04:23:20;;;;;;;;;2.33;2.33;;;;;15.22;69.32;100921.13;2032810;28;2750253;-77
2024/03/15 04:24:35;;;;;;;;;3.17;3.17;;;;;15.24;69.19;100916.59;2045420;28;2744022;-77
2024/03/15 04:25:48;;;;;;;;;5.33;3.33;;;;;15.24;69.38;100924.53;2018293;28;2754424;-77
2024/03/15 04:27:03;;;;;;;;;3.67;3.67;;;;;15.29;69.57;100927.81;2018963;28;2737776;-77
2024/03/15 04:28:19;;;;;;;;;3.00;3.00;;;;;15.24;69.32;100927.19;2014016;28;2738269;-77
2024/03/15 04:29:35;;;;;;;;;3.17;3.17;;;;;15.22;69.50;100922.91;2006819;28;2737839;-77
2024/03/15 04:30:48;;;;;;;;;5.00;2.00;;;;;15.26;69.26;100933.28;2006948;28;2745051;-77
2024/03/15 04:31:59;;;;;;;;;3.00;3.00;;;;;15.25;69.44;100941.31;1988852;28;2754550;-77
2024/03/15 04:33:12;;;;;;;;;3.00;3.00;;;;;15.19;69.48;100923.91;2028384;28;2750309;-77
2024/03/15 04:34:24;;;;;;;;;3.33;3.33;;;;;15.19;69.71;100924.78;2003125;28;2750280;-77
2024/03/15 04:35:37;;;;;;;;;4.33;3.33;;;;;15.24;69.47;100934.28;2036127;28;2737761;-77
2024/03/15 04:36:51;;;;;;;;;5.50;4.83;;;;;15.23;69.55;100933.44;2025537;28;2740886;-77
2024/03/15 04:38:04;;;;;;;;;3.00;3.00;;;;;15.18;69.57;100925.72;2022174;28;2737822;-76
2024/03/15 04:39:18;;;;;;;;;4.00;2.17;;;;;15.21;69.73;100926.50;2021931;28;2750298;-78
2024/03/15 04:40:31;;;;;;;;;4.00;4.00;;;;;15.26;69.57;100927.97;2008352;28;2750264;-77
2024/03/15 04:41:44;;;;;;;;;4.33;2.67;;;;;15.25;69.40;100931.56;2011957;28;2749225;-77
2024/03/15 04:42:58;;;;;;;;;3.67;2.50;;;;;15.19;69.66;100922.13;2015730;28;2744062;-77
2024/03/15 04:44:08;;;;;;;;;4.00;4.00;;;;;15.23;69.25;100937.88;1988292;28;2746102;-77
2024/03/15 04:45:22;;;;;;;;;3.00;3.00;;;;;15.23;69.59;100925.50;2041634;28;2734668;-77
2024/03/15 04:46:32;;;;;;;;;3.00;2.33;;;;;15.24;69.47;100932.50;2019979;28;2747167;-77
2024/03/15 04:47:44;;;;;;;;;5.00;3.00;;;;;15.18;69.25;100925.72;2036959;28;2754511;-76
2024/03/15 04:48:57;;;;;;;;;6.50;3.83;;;;;15.26;69.53;100929.78;2045441;28;2744046;-77
2024/03/15 04:50:10;;;;;;;;;4.17;3.83;;;;;15.19;69.30;100923.91;2022471;28;2746094;-77
2024/03/15 04:51:20;;;;;;;;;4.33;4.33;;;;;15.24;69.62;100932.50;1986569;28;2737800;-77
2024/03/15 04:52:31;;;;;;;;;3.00;3.00;;;;;15.22;69.50;100929.06;2012631;28;2754446;-77
2024/03/15 04:53:43;;;;;;;;;3.67;3.67;;;;;15.28;69.54;100946.44;2021429;28;2754951;-77
2024/03/15 04:54:56;;;;;;;;;3.33;3.33;;;;;15.23;69.30;100936.09;2041411;28;2743356;-77
2024/03/15 04:56:09;;;;;;;;;6.67;3.33;;;;;15.22;69.65;100931.72;2013185;28;2741928;-77
2024/03/15 04:57:25;;;;;;;;;3.83;2.00;;;;;15.26;69.33;100941.22;2006613;28;2731532;-77
2024/03/15 04:58:36;;;;;;;;;3.67;3.67;;;;;15.27;69.30;100948.25;1973706;28;2750269;-77
2024/03/15 04:59:51;;;;;;;;;2.67;2.67;;;;;15.23;69.61;100936.09;2026413;28;2731505;-77
2024/03/15 05:01:02;;;;;;;;;4.00;4.00;;;;;15.22;69.77;100941.44;1980122;28;2759074;-77
2024/03/15 05:02:12;;;;;;;;;4.00;4.00;;;;;15.25;69.60;100942.16;2016520;28;2741947;-77
2024/03/15 05:03:24;;;;;;;;;5.25;3.00;;;;;15.28;69.52;100949.09;2020773;28;2728401;-77
2024/03/15 05:04:39;;;;;;;;;2.67;2.50;;;;;15.27;69.15;100944.72;2024640;28;2741960;-77
2024/03/15 05:05:50;;;;;;;;;3.67;3.67;;;;;15.17;69.50;100936.38;1988505;28;2744562;-77
2024/03/15 05:07:02;;;;;;;;;3.00;3.00;;;;;15.24;69.59;100937.78;2021310;28;2749216;-77
2024/03/15 05:08:15;;;;;;;;;3.33;3.17;;;;;15.25;69.62;100947.47;2030427;28;2737765;-77
2024/03/15 05:09:29;;;;;;;;;3.50;3.00;;;;;15.23;69.57;100936.09;2001236;28;2737761;-77
2024/03/15 05:10:42;;;;;;;;;2.67;2.67;;;;;15.23;69.26;100937.88;2000401;28;2753394;-77
2024/03/15 05:11:52;;;;;;;;;5.00;5.00;;;;;15.28;69.70;100954.41;1986926;28;2752454;-77
2024/03/15 05:13:06;;;;;;;;;3.75;3.75;;;;;15.23;69.56;100941.38;2027374;28;2744027;-77
2024/03/15 05:14:19;;;;;;;;;2.00;2.00;;;;;15.17;69.55;100931.09;2016142;28;2731531;-77
2024/03/15 05:15:30;;;;;;;;;3.33;3.33;;;;;15.26;69.55;100941.22;1995774;28;2752357;-77
2024/03/15 05:16:54;;;;;;;;;4.75;3.75;;;;;15.22;69.52;100939.66;2036473;28;2741264;-77
2024/03/15 05:18:08;;;;;;;;;4.00;4.00;;;;;15.22;69.56;100933.50;2044582;28;2754463;-77
2024/03/15 05:19:18;;;;;;;;;5.00;4.00;;;;;15.25;69.71;100943.94;1995673;28;2744025;-77
2024/03/15 05:20:29;;;;;;;;;4.33;4.33;;;;;15.21;69.76;100937.94;2031707;28;2754491;-77
2024/03/15 05:21:41;;;;;;;;;3.00;3.00;;;;;15.20;69.58;100930.94;2043002;28;2750253;-77
2024/03/15 05:22:54;;;;;;;;;3.00;3.00;;;;;15.26;69.55;100943.84;2029364;28;2741374;-77
2024/03/15 05:24:04;;;;;;;;;4.00;4.00;;;;;15.29;69.69;100954.31;1976003;28;2745168;-77
2024/03/15 05:25:15;;;;;;;;;4.67;3.33;;;;;15.25;69.28;100942.16;2017466;28;2751346;-77
2024/03/15 05:26:31;;;;;;;;;4.25;2.50;;;;;15.24;69.54;100948.38;2035286;28;2752344;-78
2024/03/15 05:27:45;;;;;;;;;3.67;3.67;;;;;15.20;69.39;100941.53;2042679;28;2740897;-77
2024/03/15 05:28:58;;;;;;;;;4.50;4.50;;;;;15.26;69.45;100950.97;2022165;28;2736762;-77